マヘ島 の空港の天気 - METARとTAF

セーシェル国際空港 ( FSIA / SEZ ) - セーシェル マヘ島
飛行場実況気象(Metar)
観測時間12/02 03:00 SCT (12/01 23:00 UTC)
風向・風速南南西 1m/s
視程10km以上
天気現象
少しの雲 雲底高度 730m
気温25℃
湿度89%
気圧1010hPa
METARFSIA 012300Z 21002KT 9999 FEW024 25/23 Q1010 NOSIG
過去の天気等 Google飛行場航空写真 Wunderground天気予報

過去48時間のMETAR

飛行場予報(TAF)
発表時間: 12/02 03:00 SCT (12/01 23:00 UTC)
予報対象時間: 2日4時 SCT ~ 3日4時 SCT
風向・風速不定 2m/s
視程10km以上
少しの雲 雲底高度 610m
TAF FSIA 012300Z 0200/0224 VRB04KT 9999 FEW020